createdAt,value
2023-02-28T00:01:35.901Z,37.61
2023-02-28T00:04:04.281Z,37.60
2023-02-28T00:06:33.717Z,37.62
2023-02-28T00:09:02.168Z,37.76
2023-02-28T00:11:30.853Z,37.99
2023-02-28T00:13:59.762Z,37.98
2023-02-28T00:16:29.088Z,37.73
2023-02-28T00:18:57.771Z,37.70
2023-02-28T00:21:27.771Z,37.78
2023-02-28T00:23:56.471Z,38.07
2023-02-28T00:26:25.017Z,37.84
2023-02-28T00:28:53.999Z,37.94
2023-02-28T00:31:23.075Z,37.76
2023-02-28T00:33:53.286Z,38.06
2023-02-28T00:36:22.831Z,37.82
2023-02-28T00:38:51.493Z,37.78
2023-02-28T00:41:19.901Z,38.10
2023-02-28T00:43:49.080Z,38.16
2023-02-28T00:46:20.894Z,38.35
2023-02-28T00:48:48.802Z,38.07
2023-02-28T00:51:16.675Z,37.94
2023-02-28T00:53:45.436Z,38.03
2023-02-28T00:56:14.823Z,37.77
2023-02-28T00:58:43.153Z,37.81
2023-02-28T01:01:11.709Z,37.96
2023-02-28T01:03:40.254Z,38.13
2023-02-28T01:06:08.457Z,38.08
2023-02-28T01:08:36.611Z,38.20
2023-02-28T01:11:13.551Z,37.84
2023-02-28T01:13:44.129Z,38.05
2023-02-28T01:16:15.031Z,37.99
2023-02-28T01:18:43.693Z,38.06
2023-02-28T01:21:18.100Z,37.86
2023-02-28T01:23:47.539Z,37.95
2023-02-28T01:26:23.286Z,38.29
2023-02-28T01:28:53.495Z,38.30
2023-02-28T01:31:23.004Z,38.43
2023-02-28T01:33:51.843Z,38.51
2023-02-28T01:36:24.744Z,38.13
2023-02-28T01:38:54.202Z,38.44
2023-02-28T01:41:30.764Z,38.57
2023-02-28T01:44:07.973Z,38.42
2023-02-28T01:46:37.692Z,38.60
2023-02-28T01:49:18.450Z,38.63
2023-02-28T01:51:55.788Z,39.06
2023-02-28T01:54:36.574Z,38.50
2023-02-28T01:57:18.048Z,38.47
2023-02-28T02:00:10.297Z,38.66
2023-02-28T02:02:47.718Z,38.66
2023-02-28T02:05:32.354Z,38.69
2023-02-28T02:08:13.363Z,39.04
2023-02-28T02:10:51.254Z,38.64
2023-02-28T02:13:56.629Z,38.94
2023-02-28T02:16:44.952Z,39.04
2023-02-28T02:19:55.895Z,38.90
2023-02-28T02:22:46.163Z,39.01
2023-02-28T02:25:46.409Z,39.39
2023-02-28T02:28:35.314Z,38.98
2023-02-28T02:31:36.578Z,39.31
2023-02-28T02:34:40.468Z,39.21
2023-02-28T02:37:17.915Z,39.53
2023-02-28T02:39:52.887Z,39.84
2023-02-28T02:42:31.133Z,39.46
2023-02-28T02:45:23.842Z,39.57
2023-02-28T02:47:52.894Z,39.78
2023-02-28T02:50:28.905Z,39.38
2023-02-28T02:53:04.538Z,39.62
2023-02-28T02:55:40.022Z,39.78
2023-02-28T02:58:20.567Z,39.77
2023-02-28T03:00:55.061Z,40.02
2023-02-28T03:03:35.715Z,40.09
2023-02-28T03:06:06.976Z,39.97
2023-02-28T03:08:38.985Z,40.18
2023-02-28T03:11:16.343Z,40.42
2023-02-28T03:13:51.432Z,40.45
2023-02-28T03:16:42.806Z,39.91
2023-02-28T03:19:34.115Z,40.04
2023-02-28T03:22:34.584Z,40.52
2023-02-28T03:25:26.583Z,40.30
2023-02-28T03:28:28.176Z,40.56
2023-02-28T03:31:10.313Z,40.22
2023-02-28T03:34:19.840Z,40.53
2023-02-28T03:37:16.400Z,40.21
2023-02-28T03:40:02.194Z,40.62
2023-02-28T03:42:36.608Z,40.10
2023-02-28T03:45:13.995Z,40.50
2023-02-28T03:47:50.209Z,40.49
2023-02-28T03:50:40.665Z,40.57
2023-02-28T03:53:20.721Z,40.71
2023-02-28T03:56:07.377Z,40.48
2023-02-28T03:59:07.936Z,40.62
2023-02-28T04:01:45.942Z,40.81
2023-02-28T04:04:15.473Z,40.67
2023-02-28T04:06:46.400Z,40.95
2023-02-28T04:09:16.280Z,40.77
2023-02-28T04:11:50.648Z,40.87
2023-02-28T04:14:19.932Z,40.70
2023-02-28T04:16:48.657Z,41.03
2023-02-28T04:19:18.125Z,40.67
2023-02-28T04:21:52.554Z,41.07
2023-02-28T04:24:25.757Z,40.94
2023-02-28T04:26:57.423Z,41.17
2023-02-28T04:29:33.174Z,41.09
2023-02-28T04:32:03.598Z,41.19
2023-02-28T04:34:33.940Z,40.86
2023-02-28T04:37:12.770Z,41.14
2023-02-28T04:39:42.881Z,41.05
2023-02-28T04:42:12.252Z,41.52
2023-02-28T04:44:42.057Z,41.14
2023-02-28T04:47:10.138Z,41.21
2023-02-28T04:49:39.255Z,41.39
2023-02-28T04:52:08.637Z,41.54
2023-02-28T04:54:36.776Z,41.55
2023-02-28T04:57:05.575Z,41.68
2023-02-28T04:59:34.163Z,41.55
2023-02-28T05:02:08.305Z,41.87
2023-02-28T05:04:37.902Z,41.87
2023-02-28T05:07:06.371Z,41.62
2023-02-28T05:09:34.677Z,41.91
2023-02-28T05:12:04.510Z,41.40
2023-02-28T05:14:33.577Z,41.63
2023-02-28T05:17:04.453Z,41.29
2023-02-28T05:19:33.013Z,41.58
2023-02-28T05:22:01.511Z,41.46
2023-02-28T05:24:29.997Z,41.85
2023-02-28T05:26:58.649Z,41.71
2023-02-28T05:29:27.892Z,41.51
2023-02-28T05:31:56.406Z,41.50
2023-02-28T05:34:24.694Z,41.29
2023-02-28T05:36:53.933Z,41.54
2023-02-28T05:39:24.100Z,41.74
2023-02-28T05:41:53.224Z,41.22
2023-02-28T05:44:21.359Z,41.58
2023-02-28T05:46:49.362Z,41.62
2023-02-28T05:49:18.987Z,41.40
2023-02-28T05:51:47.604Z,41.65
2023-02-28T05:54:16.585Z,41.32
2023-02-28T05:56:47.736Z,41.47
2023-02-28T05:59:17.122Z,41.31
2023-02-28T06:01:49.567Z,41.72
2023-02-28T06:04:31.465Z,41.49
2023-02-28T06:07:01.321Z,41.80
2023-02-28T06:09:30.257Z,41.46
2023-02-28T06:12:04.810Z,41.74
2023-02-28T06:14:34.966Z,41.53
2023-02-28T06:17:07.871Z,41.55
2023-02-28T06:19:40.106Z,41.80
2023-02-28T06:22:09.999Z,41.77
2023-02-28T06:24:38.182Z,41.74
2023-02-28T06:27:06.703Z,41.69
2023-02-28T06:29:40.906Z,41.82
2023-02-28T06:32:09.806Z,41.97
2023-02-28T06:34:38.498Z,41.84
2023-02-28T06:37:07.121Z,41.92
2023-02-28T06:39:37.479Z,41.90
2023-02-28T06:42:06.385Z,41.64
2023-02-28T06:44:41.481Z,41.56
2023-02-28T06:47:10.730Z,41.80
2023-02-28T06:49:41.385Z,41.90
2023-02-28T06:52:13.729Z,41.72
2023-02-28T06:54:43.677Z,41.95
2023-02-28T06:57:12.208Z,41.68
2023-02-28T06:59:41.057Z,42.16
2023-02-28T07:02:12.761Z,41.90
2023-02-28T07:04:45.955Z,41.84
2023-02-28T07:07:16.079Z,41.67
2023-02-28T07:09:45.092Z,41.81
2023-02-28T07:12:16.432Z,42.07
2023-02-28T07:14:44.586Z,41.62
2023-02-28T07:17:13.474Z,42.14
2023-02-28T07:19:41.536Z,41.57
2023-02-28T07:22:09.792Z,41.77
2023-02-28T07:24:42.016Z,41.90
2023-02-28T07:27:10.178Z,42.03
2023-02-28T07:29:39.636Z,42.10
2023-02-28T07:32:07.944Z,41.66
2023-02-28T07:34:36.674Z,41.50
2023-02-28T07:37:06.231Z,41.89
2023-02-28T07:39:34.376Z,41.71
2023-02-28T07:42:12.860Z,41.68
2023-02-28T07:44:41.929Z,41.81
2023-02-28T07:47:13.033Z,41.38
2023-02-28T07:49:41.420Z,41.62
2023-02-28T07:52:12.263Z,41.37
2023-02-28T07:54:40.674Z,41.74
2023-02-28T07:57:09.585Z,41.54
2023-02-28T07:59:40.072Z,41.85
2023-02-28T08:02:13.634Z,41.33
2023-02-28T08:04:44.515Z,41.66
2023-02-28T08:07:15.194Z,41.53
2023-02-28T08:09:44.464Z,41.69
2023-02-28T08:12:14.778Z,41.46
2023-02-28T08:14:45.742Z,41.68
2023-02-28T08:17:15.873Z,41.55
2023-02-28T08:19:47.156Z,41.79
2023-02-28T08:22:15.646Z,41.73
2023-02-28T08:24:45.445Z,41.32
2023-02-28T08:27:14.547Z,41.64
2023-02-28T08:29:45.945Z,41.75
2023-02-28T08:32:29.054Z,41.47
2023-02-28T08:34:59.663Z,41.71
2023-02-28T08:37:28.167Z,41.56
2023-02-28T08:39:57.008Z,41.08
2023-02-28T08:42:26.176Z,41.59
2023-02-28T08:44:56.544Z,41.26
2023-02-28T08:47:25.420Z,41.27
2023-02-28T08:49:55.535Z,41.49
2023-02-28T08:52:24.891Z,41.12
2023-02-28T08:54:55.479Z,41.31
2023-02-28T08:57:23.776Z,41.31
2023-02-28T09:00:16.326Z,40.93
2023-02-28T09:02:46.216Z,41.10
2023-02-28T09:05:35.860Z,40.63
2023-02-28T09:08:04.862Z,40.83
2023-02-28T09:10:33.097Z,40.73
2023-02-28T09:13:03.673Z,40.89
2023-02-28T09:15:32.964Z,40.71
2023-02-28T09:18:01.173Z,40.78
2023-02-28T09:20:30.044Z,40.58
2023-02-28T09:22:58.378Z,40.83
2023-02-28T09:25:26.985Z,40.46
2023-02-28T09:27:56.035Z,40.51
2023-02-28T09:30:24.714Z,40.62
2023-02-28T09:32:55.421Z,40.59
2023-02-28T09:35:26.140Z,40.26
2023-02-28T09:37:59.981Z,40.75
2023-02-28T09:40:34.124Z,40.41
2023-02-28T09:43:07.508Z,40.52
2023-02-28T09:45:43.768Z,40.20
2023-02-28T09:48:19.708Z,39.84
2023-02-28T09:50:52.662Z,39.85
2023-02-28T09:54:01.377Z,39.74
2023-02-28T09:56:42.844Z,39.28
2023-02-28T09:59:37.898Z,39.28
2023-02-28T10:02:50.612Z,39.75
2023-02-28T10:05:32.857Z,39.52
2023-02-28T10:08:40.389Z,39.84
2023-02-28T10:11:57.188Z,39.57
2023-02-28T10:14:49.600Z,39.26
2023-02-28T10:17:55.013Z,38.90
2023-02-28T10:20:36.949Z,39.14
2023-02-28T10:23:29.104Z,38.90
2023-02-28T10:26:13.095Z,39.00
2023-02-28T10:28:42.172Z,38.67
2023-02-28T10:31:26.394Z,38.81
2023-02-28T10:33:56.665Z,38.92
2023-02-28T10:36:31.466Z,38.64
2023-02-28T10:39:26.031Z,38.29
2023-02-28T10:42:07.387Z,38.60
2023-02-28T10:44:38.626Z,38.46
2023-02-28T10:47:20.044Z,38.65
2023-02-28T10:52:55.409Z,38.26
2023-02-28T10:55:34.711Z,38.55
2023-02-28T10:58:48.989Z,38.35
2023-02-28T11:01:23.279Z,38.04
2023-02-28T11:07:37.343Z,37.64
2023-02-28T11:10:21.534Z,38.21
2023-02-28T11:12:57.653Z,37.97
2023-02-28T11:16:21.880Z,38.11
2023-02-28T11:19:03.037Z,37.96
2023-02-28T11:21:41.479Z,37.43
2023-02-28T11:24:48.189Z,37.35
2023-02-28T11:27:30.812Z,37.70
2023-02-28T11:30:00.985Z,37.04
2023-02-28T11:32:32.638Z,37.63
2023-02-28T11:35:23.505Z,37.47
2023-02-28T11:37:53.055Z,37.33
2023-02-28T11:41:03.769Z,37.18
2023-02-28T11:44:12.555Z,37.06
2023-02-28T11:46:58.648Z,37.05
2023-02-28T11:49:52.851Z,37.38
2023-02-28T11:52:53.030Z,37.50
2023-02-28T11:55:27.703Z,37.18
2023-02-28T11:58:28.282Z,37.04
2023-02-28T12:01:10.398Z,37.14
2023-02-28T12:04:22.738Z,36.60
2023-02-28T12:07:22.472Z,37.02
2023-02-28T12:10:30.394Z,36.49
2023-02-28T12:13:21.456Z,36.88
2023-02-28T12:16:29.226Z,36.54
2023-02-28T12:19:15.330Z,36.60
2023-02-28T12:22:23.046Z,36.27
2023-02-28T12:25:09.065Z,36.49
2023-02-28T12:27:47.287Z,36.41
2023-02-28T12:30:29.013Z,36.33
2023-02-28T12:33:15.574Z,35.95
2023-02-28T12:36:02.257Z,36.05
2023-02-28T12:39:00.332Z,36.19
2023-02-28T12:42:01.175Z,36.12
2023-02-28T12:44:40.975Z,36.25
2023-02-28T12:47:18.238Z,35.95
2023-02-28T12:50:17.843Z,35.73
2023-02-28T12:53:29.854Z,35.60
2023-02-28T12:56:36.871Z,35.45
2023-02-28T12:59:49.197Z,35.43
2023-02-28T13:02:26.357Z,35.52
2023-02-28T13:05:09.885Z,35.12
2023-02-28T13:08:39.128Z,34.97
2023-02-28T13:11:20.956Z,35.12
2023-02-28T13:14:21.258Z,34.79
2023-02-28T13:17:12.712Z,34.71
2023-02-28T13:20:16.325Z,34.77
2023-02-28T13:22:52.608Z,34.65
2023-02-28T13:25:42.875Z,34.62
2023-02-28T13:28:15.990Z,34.75
2023-02-28T13:30:54.303Z,34.69
2023-02-28T13:33:31.453Z,34.42
2023-02-28T13:36:15.512Z,34.78
2023-02-28T13:38:53.135Z,34.74
2023-02-28T13:41:43.227Z,34.63
2023-02-28T13:44:16.551Z,34.52
2023-02-28T13:46:52.042Z,34.26
2023-02-28T13:49:27.594Z,34.47
2023-02-28T13:52:08.786Z,34.20
2023-02-28T13:55:20.889Z,34.27
2023-02-28T13:58:16.673Z,34.26
2023-02-28T14:01:13.189Z,34.64
2023-02-28T14:03:42.043Z,34.38
2023-02-28T14:06:36.188Z,33.99
2023-02-28T14:09:41.341Z,34.16
2023-02-28T14:12:53.521Z,34.12
2023-02-28T14:15:40.372Z,34.18
2023-02-28T14:18:41.477Z,34.12
2023-02-28T14:21:30.570Z,34.31
2023-02-28T14:24:33.222Z,34.01
2023-02-28T14:27:42.554Z,34.24
2023-02-28T14:31:06.066Z,34.10
2023-02-28T14:33:47.058Z,34.08
2023-02-28T14:36:40.079Z,33.92
2023-02-28T14:39:23.937Z,33.77
2023-02-28T14:41:56.781Z,34.12
2023-02-28T14:44:28.615Z,33.66
2023-02-28T14:46:59.452Z,34.01
2023-02-28T14:49:33.808Z,34.05
2023-02-28T14:52:14.757Z,33.83
2023-02-28T14:54:44.831Z,33.95
2023-02-28T14:57:35.222Z,33.71
2023-02-28T15:00:35.192Z,33.76
2023-02-28T15:03:36.436Z,33.67
2023-02-28T15:06:19.190Z,33.95
2023-02-28T15:09:12.771Z,33.83
2023-02-28T15:11:50.197Z,33.77
2023-02-28T15:14:29.379Z,33.70
2023-02-28T15:17:05.300Z,33.49
2023-02-28T15:19:40.974Z,33.75
2023-02-28T15:22:20.154Z,33.62
2023-02-28T15:24:54.115Z,33.48
2023-02-28T15:27:33.511Z,33.64
2023-02-28T15:30:09.344Z,33.77
2023-02-28T15:32:43.732Z,33.58
2023-02-28T15:35:33.893Z,33.42
2023-02-28T15:38:20.759Z,33.64
2023-02-28T15:41:00.658Z,33.54
2023-02-28T15:43:35.140Z,33.78
2023-02-28T15:46:16.362Z,33.78
2023-02-28T15:48:56.456Z,33.65
2023-02-28T15:51:35.752Z,33.76
2023-02-28T15:54:16.432Z,33.62
2023-02-28T15:56:54.553Z,33.71
2023-02-28T15:59:30.728Z,33.81
2023-02-28T16:02:23.315Z,33.58
2023-02-28T16:05:14.961Z,33.79
2023-02-28T16:07:46.950Z,34.07
2023-02-28T16:10:16.504Z,33.83
2023-02-28T16:12:45.445Z,33.77
2023-02-28T16:15:31.332Z,33.89
2023-02-28T16:17:59.915Z,33.79
2023-02-28T16:20:34.924Z,33.93
2023-02-28T16:23:03.996Z,34.11
2023-02-28T16:25:45.134Z,34.08
2023-02-28T16:28:32.683Z,34.07
2023-02-28T16:31:06.247Z,34.25
2023-02-28T16:33:36.118Z,33.92
2023-02-28T16:36:07.477Z,34.02
2023-02-28T16:38:35.727Z,34.28
2023-02-28T16:41:06.479Z,34.01
2023-02-28T16:43:36.208Z,34.09
2023-02-28T16:46:06.668Z,33.94
2023-02-28T16:48:34.830Z,33.97
2023-02-28T16:51:05.824Z,34.21
2023-02-28T16:53:35.890Z,34.30
2023-02-28T16:56:05.462Z,34.24
2023-02-28T16:58:36.974Z,34.36
2023-02-28T17:01:06.210Z,34.42
2023-02-28T17:03:35.119Z,34.29
2023-02-28T17:06:30.871Z,34.41
2023-02-28T17:09:03.076Z,34.33
2023-02-28T17:11:34.914Z,34.55
2023-02-28T17:14:04.543Z,34.26
2023-02-28T17:16:38.490Z,34.47
2023-02-28T17:19:12.087Z,34.15
2023-02-28T17:21:43.909Z,34.77
2023-02-28T17:24:28.914Z,34.31
2023-02-28T17:26:59.756Z,34.74
2023-02-28T17:29:28.972Z,34.77
2023-02-28T17:32:00.799Z,35.09
2023-02-28T17:34:31.448Z,34.69
2023-02-28T17:37:03.955Z,34.95
2023-02-28T17:39:33.153Z,34.49
2023-02-28T17:42:01.134Z,34.75
2023-02-28T17:44:30.718Z,34.84
2023-02-28T17:47:01.103Z,35.00
2023-02-28T17:49:29.491Z,34.81
2023-02-28T17:51:59.335Z,35.10
2023-02-28T17:54:28.584Z,35.17
2023-02-28T17:56:57.294Z,35.06
2023-02-28T17:59:25.449Z,34.91
2023-02-28T18:01:56.651Z,35.25
2023-02-28T18:04:28.162Z,34.99
2023-02-28T18:07:00.828Z,34.78
2023-02-28T18:09:28.552Z,34.96
2023-02-28T18:11:57.072Z,35.07
2023-02-28T18:14:26.488Z,34.85
2023-02-28T18:16:57.402Z,34.92
2023-02-28T18:19:25.135Z,35.14
2023-02-28T18:21:57.272Z,34.69
2023-02-28T18:24:25.233Z,35.11
2023-02-28T18:26:53.113Z,34.76
2023-02-28T18:29:25.317Z,35.15
2023-02-28T18:31:59.451Z,35.01
2023-02-28T18:34:33.308Z,34.97
2023-02-28T18:37:04.761Z,35.18
2023-02-28T18:39:32.723Z,34.88
2023-02-28T18:42:00.706Z,35.50
2023-02-28T18:44:28.418Z,34.93
2023-02-28T18:46:56.225Z,34.92
2023-02-28T18:49:23.967Z,35.52
2023-02-28T18:51:52.845Z,34.89
2023-02-28T18:54:20.849Z,35.25
2023-02-28T18:56:50.808Z,35.20
2023-02-28T18:59:21.062Z,34.98
2023-02-28T19:01:51.315Z,34.77
2023-02-28T19:04:19.172Z,34.86
2023-02-28T19:06:46.912Z,34.88
2023-02-28T19:09:14.678Z,35.04
2023-02-28T19:11:42.664Z,35.06
2023-02-28T19:14:10.699Z,35.19
2023-02-28T19:16:39.894Z,35.53
2023-02-28T19:19:07.883Z,34.67
2023-02-28T19:21:36.715Z,35.61
2023-02-28T19:24:05.343Z,35.07
2023-02-28T19:26:33.824Z,35.28
2023-02-28T19:29:06.058Z,35.01
2023-02-28T19:31:33.908Z,35.15
2023-02-28T19:34:04.684Z,35.32
2023-02-28T19:36:33.383Z,35.30
2023-02-28T19:39:01.337Z,34.85
2023-02-28T19:41:29.288Z,35.04
2023-02-28T19:43:57.279Z,35.13
2023-02-28T19:46:25.604Z,35.21
2023-02-28T19:48:56.167Z,35.11
2023-02-28T19:51:24.490Z,34.84
2023-02-28T19:53:52.414Z,35.27
2023-02-28T19:56:20.262Z,35.25
2023-02-28T19:58:48.206Z,35.24
2023-02-28T20:01:19.622Z,35.26
2023-02-28T20:03:51.252Z,35.09
2023-02-28T20:06:19.144Z,35.34
2023-02-28T20:08:48.609Z,35.31
2023-02-28T20:11:17.687Z,35.27
2023-02-28T20:13:48.339Z,34.91
2023-02-28T20:16:16.647Z,34.82
2023-02-28T20:18:47.450Z,34.95
2023-02-28T20:21:16.493Z,35.22
2023-02-28T20:23:48.593Z,35.35
2023-02-28T20:26:20.237Z,35.71
2023-02-28T20:28:48.656Z,35.50
2023-02-28T20:31:25.500Z,35.29
2023-02-28T20:33:53.475Z,35.18
2023-02-28T20:36:23.593Z,35.76
2023-02-28T20:38:53.083Z,35.38
2023-02-28T20:41:21.780Z,35.58
2023-02-28T20:44:00.839Z,35.64
2023-02-28T20:46:31.294Z,35.32
2023-02-28T20:48:59.331Z,35.67
2023-02-28T20:51:27.119Z,35.53
2023-02-28T20:53:54.982Z,35.66
2023-02-28T20:56:25.982Z,35.73
2023-02-28T20:59:13.943Z,35.62
2023-02-28T21:01:44.749Z,35.96
2023-02-28T21:04:12.663Z,35.66
2023-02-28T21:06:43.718Z,35.90
2023-02-28T21:09:14.405Z,35.89
2023-02-28T21:11:42.623Z,36.25
2023-02-28T21:14:16.424Z,35.75
2023-02-28T21:16:48.111Z,36.04
2023-02-28T21:19:16.931Z,35.81
2023-02-28T21:21:46.665Z,35.68
2023-02-28T21:24:19.774Z,36.07
2023-02-28T21:26:48.172Z,36.19
2023-02-28T21:29:16.113Z,36.21
2023-02-28T21:31:44.114Z,35.83
2023-02-28T21:34:13.512Z,36.31
2023-02-28T21:36:47.446Z,36.32
2023-02-28T21:39:19.779Z,36.02
2023-02-28T21:41:48.035Z,35.99
2023-02-28T21:44:19.542Z,36.29
2023-02-28T21:46:52.565Z,36.44
2023-02-28T21:49:20.722Z,36.25
2023-02-28T21:51:48.834Z,36.29
2023-02-28T21:54:16.707Z,36.28
2023-02-28T21:56:44.634Z,36.51
2023-02-28T21:59:13.080Z,36.62
2023-02-28T22:01:46.466Z,36.35
2023-02-28T22:04:22.017Z,36.52
2023-02-28T22:06:53.619Z,36.76
2023-02-28T22:09:21.800Z,36.41
2023-02-28T22:11:50.398Z,36.81
2023-02-28T22:14:18.808Z,36.71
2023-02-28T22:16:51.718Z,36.67
2023-02-28T22:19:22.099Z,36.63
2023-02-28T22:21:50.436Z,36.99
2023-02-28T22:24:20.993Z,36.81
2023-02-28T22:26:55.627Z,37.03
2023-02-28T22:29:23.454Z,37.18
2023-02-28T22:31:51.430Z,37.05
2023-02-28T22:34:20.627Z,37.03
2023-02-28T22:36:54.946Z,37.15
2023-02-28T22:39:22.713Z,37.17
2023-02-28T22:41:51.229Z,37.27
2023-02-28T22:44:19.966Z,37.22
2023-02-28T22:46:53.805Z,37.51
2023-02-28T22:49:22.560Z,36.99
2023-02-28T22:51:57.605Z,37.30
2023-02-28T22:54:25.612Z,37.16
2023-02-28T22:56:53.424Z,37.23
2023-02-28T22:59:22.263Z,37.37
2023-02-28T23:01:54.317Z,37.43
2023-02-28T23:04:32.685Z,37.44
2023-02-28T23:07:01.143Z,37.33
2023-02-28T23:09:28.934Z,37.21
2023-02-28T23:11:56.636Z,37.55
2023-02-28T23:14:24.360Z,37.39
2023-02-28T23:16:54.944Z,37.65
2023-02-28T23:19:29.874Z,37.66
2023-02-28T23:21:59.974Z,37.74
2023-02-28T23:24:31.281Z,37.87
2023-02-28T23:27:01.436Z,37.63
2023-02-28T23:29:29.701Z,37.73
2023-02-28T23:31:58.295Z,37.85
2023-02-28T23:34:30.205Z,37.83
2023-02-28T23:37:02.114Z,37.99
2023-02-28T23:39:31.293Z,37.79
2023-02-28T23:41:59.854Z,37.90
2023-02-28T23:44:28.107Z,37.80
2023-02-28T23:46:55.999Z,37.82
2023-02-28T23:49:23.884Z,38.02
2023-02-28T23:51:54.207Z,38.01
2023-02-28T23:54:22.338Z,37.95
2023-02-28T23:56:50.365Z,38.04
2023-02-28T23:59:18.250Z,38.06
